createdAt,value
2023-02-16T00:00:42.215Z,-0.70
2023-02-16T00:05:45.416Z,-0.30
2023-02-16T00:11:08.031Z,-0.30
2023-02-16T00:16:19.433Z,-0.50
2023-02-16T00:21:22.388Z,-0.60
2023-02-16T00:26:28.176Z,-0.40
2023-02-16T00:31:34.418Z,-0.50
2023-02-16T00:36:37.127Z,-0.60
2023-02-16T00:41:51.985Z,-0.50
2023-02-16T00:46:55.449Z,-0.60
2023-02-16T00:51:58.456Z,-0.60
2023-02-16T00:57:01.211Z,-0.30
2023-02-16T01:02:04.195Z,-0.10
2023-02-16T01:07:31.697Z,-0.20
2023-02-16T01:12:34.370Z,-0.10
2023-02-16T01:17:36.912Z,0.00
2023-02-16T01:22:39.465Z,0.20
2023-02-16T01:27:44.385Z,0.20
2023-02-16T01:32:52.540Z,0.10
2023-02-16T01:37:55.510Z,0.30
2023-02-16T01:43:28.557Z,0.40
2023-02-16T01:48:32.392Z,0.20
2023-02-16T01:53:55.269Z,0.10
2023-02-16T01:59:08.699Z,0.10
2023-02-16T02:04:44.272Z,0.30
2023-02-16T02:10:16.976Z,0.40
2023-02-16T02:15:24.751Z,0.40
2023-02-16T02:20:47.833Z,0.10
2023-02-16T02:26:27.419Z,-0.10
2023-02-16T02:31:59.395Z,-0.20
2023-02-16T02:37:20.402Z,-0.10
2023-02-16T02:42:54.107Z,0.30
2023-02-16T02:47:57.638Z,0.10
2023-02-16T02:53:05.063Z,0.40
2023-02-16T02:58:26.512Z,0.60
2023-02-16T03:03:37.574Z,1.90
2023-02-16T03:08:44.238Z,3.60
2023-02-16T03:13:51.030Z,4.30
2023-02-16T03:19:13.444Z,3.40
2023-02-16T03:24:43.015Z,2.60
2023-02-16T03:29:47.305Z,2.20
2023-02-16T03:34:50.088Z,1.20
2023-02-16T03:40:10.985Z,1.00
2023-02-16T03:45:13.524Z,1.00
2023-02-16T03:50:16.620Z,1.10
2023-02-16T03:55:19.564Z,0.90
2023-02-16T04:00:22.216Z,0.80
2023-02-16T04:05:25.191Z,1.10
2023-02-16T04:10:28.182Z,1.50
2023-02-16T04:15:31.726Z,3.00
2023-02-16T04:20:35.482Z,3.50
2023-02-16T04:25:38.003Z,2.50
2023-02-16T04:30:40.630Z,1.80
2023-02-16T04:35:43.175Z,2.10
2023-02-16T04:40:45.811Z,1.80
2023-02-16T04:45:48.417Z,1.60
2023-02-16T04:50:51.108Z,0.90
2023-02-16T04:55:53.552Z,0.30
2023-02-16T05:00:56.035Z,-0.20
2023-02-16T05:05:58.584Z,-0.40
2023-02-16T05:11:39.362Z,-0.40
2023-02-16T05:16:42.147Z,-0.40
2023-02-16T05:21:44.618Z,-0.50
2023-02-16T05:26:48.083Z,-0.80
2023-02-16T05:31:50.821Z,-0.60
2023-02-16T05:36:53.644Z,-0.20
2023-02-16T05:41:56.318Z,0.20
2023-02-16T05:46:58.973Z,0.30
2023-02-16T05:52:01.675Z,0.10
2023-02-16T05:57:04.277Z,0.10
2023-02-16T06:02:08.020Z,0.40
2023-02-16T06:07:12.053Z,0.20
2023-02-16T06:12:16.187Z,3.00
2023-02-16T06:17:18.744Z,4.00
2023-02-16T06:22:21.354Z,2.50
2023-02-16T06:27:24.096Z,1.60
2023-02-16T06:32:26.766Z,1.20
2023-02-16T06:37:29.554Z,0.90
2023-02-16T06:42:32.290Z,2.30
2023-02-16T06:47:35.884Z,1.80
2023-02-16T06:52:38.446Z,1.00
2023-02-16T06:57:41.052Z,1.30
2023-02-16T07:02:44.431Z,1.10
2023-02-16T07:07:46.956Z,1.50
2023-02-16T07:12:49.548Z,1.80
2023-02-16T07:17:52.136Z,1.70
2023-02-16T07:22:54.942Z,2.20
2023-02-16T07:27:57.479Z,3.30
2023-02-16T07:32:59.990Z,3.70
2023-02-16T07:38:03.544Z,4.70
2023-02-16T07:43:07.915Z,5.50
2023-02-16T07:48:10.552Z,5.90
2023-02-16T07:53:13.151Z,7.20
2023-02-16T07:58:27.781Z,7.40
2023-02-16T08:03:30.370Z,6.20
2023-02-16T08:08:33.353Z,6.50
2023-02-16T08:13:35.890Z,7.30
2023-02-16T08:18:39.324Z,7.40
2023-02-16T08:23:50.027Z,7.00
2023-02-16T08:28:53.035Z,7.60
2023-02-16T08:33:57.164Z,8.60
2023-02-16T08:39:01.124Z,9.30
2023-02-16T08:44:05.808Z,8.90
2023-02-16T08:49:09.452Z,8.90
2023-02-16T08:54:16.803Z,9.30
2023-02-16T08:59:21.697Z,8.80
2023-02-16T09:04:25.669Z,9.00
2023-02-16T09:09:28.781Z,9.00
2023-02-16T09:14:31.299Z,10.20
2023-02-16T09:19:34.218Z,10.40
2023-02-16T09:24:36.810Z,10.40
2023-02-16T09:29:40.549Z,10.30
2023-02-16T09:34:44.971Z,11.10
2023-02-16T09:39:47.647Z,11.10
2023-02-16T09:45:11.592Z,11.50
2023-02-16T09:50:38.271Z,11.40
2023-02-16T09:56:04.787Z,11.50
2023-02-16T10:01:19.063Z,11.80
2023-02-16T10:06:45.618Z,11.90
2023-02-16T10:12:01.991Z,12.10
2023-02-16T10:17:08.372Z,12.40
2023-02-16T10:22:17.661Z,12.00
2023-02-16T10:27:23.057Z,11.60
2023-02-16T10:32:29.366Z,11.40
2023-02-16T10:37:43.455Z,10.90
2023-02-16T10:42:56.536Z,11.40
2023-02-16T10:48:00.529Z,11.50
2023-02-16T10:53:10.385Z,11.30
2023-02-16T10:58:22.706Z,12.10
2023-02-16T11:03:30.446Z,12.20
2023-02-16T11:08:49.017Z,11.80
2023-02-16T11:14:02.630Z,12.60
2023-02-16T11:19:09.291Z,12.80
2023-02-16T11:24:23.986Z,13.00
2023-02-16T11:29:26.787Z,13.30
2023-02-16T11:34:36.170Z,11.60
2023-02-16T11:39:41.453Z,12.10
2023-02-16T11:44:51.818Z,11.80
2023-02-16T11:50:29.347Z,11.30
2023-02-16T11:55:33.343Z,9.50
2023-02-16T12:00:35.993Z,10.00
2023-02-16T12:06:17.026Z,10.50
2023-02-16T12:11:41.053Z,12.10
2023-02-16T12:17:07.967Z,12.40
2023-02-16T12:22:24.390Z,13.30
2023-02-16T12:28:05.967Z,13.30
2023-02-16T12:33:27.714Z,13.40
2023-02-16T12:38:56.843Z,13.60
2023-02-16T12:44:06.513Z,13.60
2023-02-16T12:49:36.158Z,13.30
2023-02-16T12:55:02.236Z,13.10
2023-02-16T13:00:33.416Z,12.60
2023-02-16T13:05:38.073Z,13.40
2023-02-16T13:11:07.674Z,13.40
2023-02-16T13:16:45.763Z,13.60
2023-02-16T13:21:54.071Z,14.10
2023-02-16T13:27:11.685Z,14.20
2023-02-16T13:32:17.895Z,13.60
2023-02-16T13:37:46.425Z,13.20
2023-02-16T13:43:45.118Z,13.20
2023-02-16T13:48:53.680Z,13.30
2023-02-16T13:53:59.253Z,13.70
2023-02-16T13:59:17.351Z,13.40
2023-02-16T14:04:22.737Z,13.50
2023-02-16T14:09:51.389Z,13.40
2023-02-16T14:14:53.914Z,13.70
2023-02-16T14:20:22.471Z,13.70
2023-02-16T14:25:27.192Z,13.70
2023-02-16T14:30:35.607Z,13.10
2023-02-16T14:35:41.224Z,13.40
2023-02-16T14:40:48.696Z,13.40
2023-02-16T14:46:02.221Z,13.30
2023-02-16T14:51:39.695Z,13.70
2023-02-16T14:56:45.497Z,13.60
2023-02-16T15:01:48.192Z,13.60
2023-02-16T15:06:51.203Z,13.80
2023-02-16T15:12:18.589Z,13.00
2023-02-16T15:17:44.898Z,12.70
2023-02-16T15:23:12.359Z,13.00
2023-02-16T15:28:26.112Z,12.60
2023-02-16T15:33:38.658Z,12.50
2023-02-16T15:38:57.085Z,12.40
2023-02-16T15:44:00.388Z,12.20
2023-02-16T15:49:28.288Z,12.10
2023-02-16T15:54:35.596Z,12.50
2023-02-16T15:59:43.464Z,12.40
2023-02-16T16:04:56.537Z,12.00
2023-02-16T16:10:00.360Z,11.30
2023-02-16T16:15:04.729Z,10.80
2023-02-16T16:20:28.603Z,10.50
2023-02-16T16:25:38.887Z,10.50
2023-02-16T16:30:44.197Z,10.30
2023-02-16T16:35:48.839Z,10.30
2023-02-16T16:40:54.955Z,10.40
2023-02-16T16:46:18.883Z,10.60
2023-02-16T16:51:24.248Z,10.80
2023-02-16T16:56:29.003Z,10.40
2023-02-16T17:01:32.163Z,10.10
2023-02-16T17:06:34.763Z,10.00
2023-02-16T17:11:39.396Z,9.80
2023-02-16T17:16:45.425Z,10.10
2023-02-16T17:21:49.077Z,10.10
2023-02-16T17:26:51.545Z,9.60
2023-02-16T17:31:54.141Z,8.80
2023-02-16T17:37:08.577Z,7.90
2023-02-16T17:42:11.907Z,8.30
2023-02-16T17:47:16.424Z,7.60
2023-02-16T17:52:18.937Z,6.70
2023-02-16T17:57:21.499Z,5.90
2023-02-16T18:02:24.067Z,5.30
2023-02-16T18:07:27.009Z,5.10
2023-02-16T18:12:29.582Z,4.80
2023-02-16T18:17:32.128Z,4.60
2023-02-16T18:22:34.870Z,4.70
2023-02-16T18:27:37.524Z,5.30
2023-02-16T18:32:41.919Z,5.50
2023-02-16T18:37:45.420Z,5.20
2023-02-16T18:42:48.138Z,4.90
2023-02-16T18:47:50.633Z,4.90
2023-02-16T18:52:53.172Z,5.10
2023-02-16T18:57:55.735Z,5.30
2023-02-16T19:02:58.472Z,5.20
2023-02-16T19:08:01.191Z,5.30
2023-02-16T19:13:05.154Z,5.40
2023-02-16T19:18:07.604Z,5.60
2023-02-16T19:23:10.004Z,6.60
2023-02-16T19:28:12.452Z,6.90
2023-02-16T19:33:14.980Z,7.60
2023-02-16T19:38:17.794Z,8.20
2023-02-16T19:43:21.282Z,8.60
2023-02-16T19:48:23.729Z,9.30
2023-02-16T19:53:26.641Z,9.90
2023-02-16T19:58:29.194Z,10.40
2023-02-16T20:03:31.727Z,10.50
2023-02-16T20:08:34.278Z,10.50
2023-02-16T20:13:37.535Z,10.70
2023-02-16T20:18:40.798Z,10.90
2023-02-16T20:23:44.626Z,10.50
2023-02-16T20:28:48.590Z,10.50
2023-02-16T20:33:51.994Z,10.30
2023-02-16T20:38:54.908Z,10.30
2023-02-16T20:43:57.550Z,10.80
2023-02-16T20:49:00.281Z,11.00
2023-02-16T20:54:04.012Z,10.80
2023-02-16T20:59:06.553Z,10.30
2023-02-16T21:04:10.551Z,9.80
2023-02-16T21:09:14.076Z,10.00
2023-02-16T21:14:16.633Z,10.30
2023-02-16T21:19:23.314Z,10.70
2023-02-16T21:24:26.115Z,11.10
2023-02-16T21:29:28.625Z,11.40
2023-02-16T21:34:32.437Z,11.20
2023-02-16T21:39:53.549Z,11.40
2023-02-16T21:45:14.162Z,11.50
2023-02-16T21:50:17.186Z,11.70
2023-02-16T21:55:38.249Z,11.60
2023-02-16T22:00:42.562Z,11.10
2023-02-16T22:05:45.272Z,10.70
2023-02-16T22:10:47.799Z,10.80
2023-02-16T22:15:50.361Z,10.70
2023-02-16T22:20:53.074Z,10.60
2023-02-16T22:25:55.608Z,10.40
2023-02-16T22:30:58.313Z,9.70
2023-02-16T22:36:11.787Z,9.70
2023-02-16T22:41:14.283Z,9.30
2023-02-16T22:46:17.682Z,9.10
2023-02-16T22:51:21.706Z,9.30
2023-02-16T22:56:24.234Z,9.10
2023-02-16T23:01:29.517Z,8.80
2023-02-16T23:06:34.995Z,8.90
2023-02-16T23:11:37.566Z,8.50
2023-02-16T23:16:40.048Z,8.00
2023-02-16T23:21:43.151Z,7.90
2023-02-16T23:26:46.243Z,8.50
2023-02-16T23:31:49.161Z,8.70
2023-02-16T23:36:51.781Z,8.80
2023-02-16T23:41:54.374Z,9.30
2023-02-16T23:46:57.011Z,9.40
2023-02-16T23:51:59.573Z,9.20
2023-02-16T23:57:02.269Z,10.00
